createdAt,value
2019-01-08T00:00:30.391Z,77109.05
2019-01-08T00:02:56.347Z,77104.05
2019-01-08T00:05:22.240Z,77105.05
2019-01-08T00:07:51.162Z,77093.04
2019-01-08T00:10:17.059Z,77091.03
2019-01-08T00:12:45.720Z,77087.03
2019-01-08T00:15:11.622Z,77085.03
2019-01-08T00:17:40.532Z,77081.03
2019-01-08T00:20:09.590Z,77075.02
2019-01-08T00:22:38.658Z,77067.02
2019-01-08T00:25:04.621Z,77059.01
2019-01-08T00:27:33.543Z,77055.01
2019-01-08T00:29:59.439Z,77049.00
2019-01-08T00:32:28.457Z,77047.00
2019-01-08T00:34:57.285Z,77045.00
2019-01-08T00:37:23.183Z,77044.00
2019-01-08T00:39:50.390Z,77035.99
2019-01-08T00:42:16.265Z,77032.98
2019-01-08T00:44:42.157Z,77030.98
2019-01-08T00:47:08.387Z,77027.98
2019-01-08T00:49:38.298Z,77020.98
2019-01-08T00:52:08.667Z,77012.97
2019-01-08T00:54:34.568Z,77012.97
2019-01-08T00:57:00.508Z,77005.97
2019-01-08T00:59:26.454Z,76998.96
2019-01-08T01:01:55.113Z,76998.96
2019-01-08T01:04:21.034Z,76990.95
2019-01-08T01:06:46.925Z,76990.95
2019-01-08T01:09:15.965Z,76985.95
2019-01-08T01:11:45.045Z,76984.95
2019-01-08T01:14:14.023Z,76980.94
2019-01-08T01:16:39.923Z,76984.95
2019-01-08T01:19:08.874Z,76963.93
2019-01-08T01:21:35.097Z,76962.93
2019-01-08T01:24:01.014Z,76956.92
2019-01-08T01:26:26.920Z,76958.92
2019-01-08T01:28:59.978Z,76946.91
2019-01-08T01:31:23.358Z,76944.91
2019-01-08T01:33:49.845Z,76940.91
2019-01-08T01:36:18.576Z,76930.91
2019-01-08T01:38:47.492Z,76927.90
2019-01-08T01:41:13.389Z,76918.89
2019-01-08T01:43:39.292Z,76914.89
2019-01-08T01:46:08.348Z,76911.89
2019-01-08T01:48:34.260Z,76907.88
2019-01-08T01:51:03.292Z,76898.88
2019-01-08T01:53:29.197Z,76891.87
2019-01-08T01:55:55.140Z,76886.86
2019-01-08T01:58:23.989Z,76880.86
2019-01-08T02:00:50.334Z,76889.87
2019-01-08T02:03:16.244Z,76882.86
2019-01-08T02:05:45.152Z,76883.86
2019-01-08T02:08:14.076Z,76872.86
2019-01-08T02:10:42.729Z,76871.85
2019-01-08T02:13:08.674Z,76870.85
2019-01-08T02:15:37.659Z,76870.85
2019-01-08T02:18:06.606Z,76860.84
2019-01-08T02:20:35.585Z,76852.84
2019-01-08T02:23:04.585Z,76854.84
2019-01-08T02:25:33.530Z,76842.83
2019-01-08T02:28:02.623Z,76842.83
2019-01-08T02:30:28.518Z,76825.81
2019-01-08T02:32:57.475Z,76821.81
2019-01-08T02:35:26.370Z,76821.81
2019-01-08T02:37:55.301Z,76817.81
2019-01-08T02:40:21.200Z,76810.80
2019-01-08T02:42:50.141Z,76814.81
2019-01-08T02:45:16.054Z,76803.80
2019-01-08T02:47:44.984Z,76800.80
2019-01-08T02:50:13.972Z,76798.80
2019-01-08T02:52:40.017Z,76794.79
2019-01-08T02:55:05.944Z,76791.79
2019-01-08T02:57:34.879Z,76790.79
2019-01-08T03:00:00.773Z,76794.79
2019-01-08T03:02:29.598Z,76786.78
2019-01-08T03:04:55.511Z,76774.78
2019-01-08T03:07:21.450Z,76771.77
2019-01-08T03:09:50.358Z,76770.77
2019-01-08T03:12:20.784Z,76767.77
2019-01-08T03:14:51.597Z,76758.77
2019-01-08T03:17:17.691Z,76755.77
2019-01-08T03:19:46.348Z,76748.76
2019-01-08T03:22:12.246Z,76752.76
2019-01-08T03:24:38.148Z,76748.76
2019-01-08T03:27:04.042Z,76753.77
2019-01-08T03:29:33.728Z,76750.76
2019-01-08T03:31:57.653Z,76738.75
2019-01-08T03:34:23.539Z,76736.75
2019-01-08T03:36:50.547Z,76734.75
2019-01-08T03:39:16.442Z,76730.74
2019-01-08T03:41:42.383Z,76720.73
2019-01-08T03:44:11.013Z,76719.73
2019-01-08T03:46:37.342Z,76708.73
2019-01-08T03:49:06.059Z,76702.72
2019-01-08T03:51:34.952Z,76696.72
2019-01-08T03:54:03.857Z,76688.71
2019-01-08T03:56:29.982Z,76690.71
2019-01-08T03:58:58.707Z,76685.70
2019-01-08T04:01:25.518Z,76678.70
2019-01-08T04:03:51.396Z,76677.70
2019-01-08T04:06:20.354Z,76677.70
2019-01-08T04:08:52.223Z,76668.70
2019-01-08T04:11:18.125Z,76667.70
2019-01-08T04:13:47.293Z,76667.70
2019-01-08T04:16:13.229Z,76660.69
2019-01-08T04:18:39.173Z,76652.69
2019-01-08T04:21:08.095Z,76643.67
2019-01-08T04:23:36.792Z,76639.67
2019-01-08T04:26:05.749Z,76637.67
2019-01-08T04:28:31.695Z,76630.67
2019-01-08T04:30:57.944Z,76636.67
2019-01-08T04:33:26.686Z,76628.67
2019-01-08T04:35:52.621Z,76624.66
2019-01-08T04:38:18.536Z,76630.67
2019-01-08T04:40:47.320Z,76614.66
2019-01-08T04:43:14.077Z,76611.66
2019-01-08T04:45:43.046Z,76608.66
2019-01-08T04:48:11.965Z,76605.65
2019-01-08T04:50:40.923Z,76601.64
2019-01-08T04:53:06.812Z,76596.64
2019-01-08T04:55:32.741Z,76594.64
2019-01-08T04:57:58.644Z,76592.64
2019-01-08T05:00:27.548Z,76593.64
2019-01-08T05:02:56.502Z,76592.64
2019-01-08T05:05:25.420Z,76579.63
2019-01-08T05:07:51.784Z,76569.63
2019-01-08T05:10:17.686Z,76569.63
2019-01-08T05:12:48.078Z,76567.63
2019-01-08T05:15:16.986Z,76558.61
2019-01-08T05:17:45.892Z,76553.61
2019-01-08T05:20:11.792Z,76549.61
2019-01-08T05:22:40.711Z,76538.60
2019-01-08T05:25:09.747Z,76529.59
2019-01-08T05:27:35.698Z,76522.59
2019-01-08T05:30:08.079Z,76510.58
2019-01-08T05:32:34.325Z,76498.57
2019-01-08T05:35:04.470Z,76496.57
2019-01-08T05:37:30.365Z,76488.56
2019-01-08T05:39:59.573Z,76476.55
2019-01-08T05:42:25.479Z,76478.56
2019-01-08T05:44:51.719Z,76481.56
2019-01-08T05:47:17.730Z,76483.56
2019-01-08T05:49:44.136Z,76464.55
2019-01-08T05:52:10.030Z,76465.55
2019-01-08T05:54:39.181Z,76459.55
2019-01-08T05:57:08.348Z,76464.55
2019-01-08T05:59:37.095Z,76460.55
2019-01-08T06:02:04.005Z,76455.55
2019-01-08T06:04:29.985Z,76455.55
2019-01-08T06:06:55.898Z,76457.55
2019-01-08T06:09:21.786Z,76454.55
2019-01-08T06:11:47.682Z,76448.54
2019-01-08T06:14:13.587Z,76448.54
2019-01-08T06:16:39.529Z,76443.53
2019-01-08T06:19:05.446Z,76442.53
2019-01-08T06:21:31.704Z,76444.53
2019-01-08T06:23:57.602Z,76437.53
2019-01-08T06:26:26.568Z,76436.53
2019-01-08T06:28:52.624Z,76433.53
2019-01-08T06:31:22.708Z,76426.52
2019-01-08T06:33:52.108Z,76417.52
2019-01-08T06:36:18.021Z,76408.51
2019-01-08T06:38:46.686Z,76408.51
2019-01-08T06:41:16.002Z,76400.50
2019-01-08T06:43:44.990Z,76398.50
2019-01-08T06:46:13.888Z,76395.50
2019-01-08T06:48:43.025Z,76387.50
2019-01-08T06:51:08.938Z,76392.50
2019-01-08T06:53:34.824Z,76381.49
2019-01-08T06:56:00.786Z,76378.48
2019-01-08T06:58:26.685Z,76375.48
2019-01-08T07:00:52.703Z,76373.48
2019-01-08T07:03:18.588Z,76369.48
2019-01-08T07:05:44.477Z,76365.48
2019-01-08T07:08:13.158Z,76358.48
2019-01-08T07:10:40.961Z,76359.48
2019-01-08T07:13:06.913Z,76356.48
2019-01-08T07:15:35.841Z,76358.48
2019-01-08T07:18:04.748Z,76345.47
2019-01-08T07:20:33.677Z,76344.47
2019-01-08T07:22:59.616Z,76339.47
2019-01-08T07:25:28.605Z,76330.46
2019-01-08T07:27:54.519Z,76331.46
2019-01-08T07:30:23.652Z,76322.45
2019-01-08T07:32:52.581Z,76326.45
2019-01-08T07:35:21.972Z,76323.45
2019-01-08T07:37:50.709Z,76319.45
2019-01-08T07:40:22.590Z,76310.45
2019-01-08T07:42:51.316Z,76308.44
2019-01-08T07:45:22.997Z,76301.44
2019-01-08T07:47:48.900Z,76307.44
2019-01-08T07:50:17.806Z,76299.44
2019-01-08T07:52:43.712Z,76314.45
2019-01-08T07:55:09.610Z,76292.44
2019-01-08T07:57:35.517Z,76286.43
2019-01-08T08:00:05.134Z,76288.43
2019-01-08T08:02:34.158Z,76281.42
2019-01-08T08:05:03.839Z,76270.42
2019-01-08T08:07:32.761Z,76269.42
2019-01-08T08:10:01.733Z,76261.41
2019-01-08T08:12:30.662Z,76256.41
2019-01-08T08:14:59.557Z,76250.41
2019-01-08T08:17:25.470Z,76246.41
2019-01-08T08:19:51.360Z,76235.40
2019-01-08T08:22:17.258Z,76238.40
2019-01-08T08:24:43.142Z,76237.40
2019-01-08T08:27:09.056Z,76243.41
2019-01-08T08:29:35.443Z,76230.39
2019-01-08T08:32:01.389Z,76233.40
2019-01-08T08:34:27.297Z,76231.39
2019-01-08T08:36:53.198Z,76219.39
2019-01-08T08:39:20.440Z,76221.39
2019-01-08T08:41:46.297Z,76218.39
2019-01-08T08:44:12.242Z,76213.38
2019-01-08T08:46:38.125Z,76201.38
2019-01-08T08:49:04.083Z,76204.38
2019-01-08T08:51:29.968Z,76216.38
2019-01-08T08:53:55.874Z,76213.38
2019-01-08T08:56:24.531Z,76196.38
2019-01-08T08:58:50.421Z,76186.37
2019-01-08T09:01:16.661Z,76184.37
2019-01-08T09:03:42.884Z,76185.37
2019-01-08T09:06:08.786Z,76176.36
2019-01-08T09:08:34.674Z,76172.36
2019-01-08T09:11:00.643Z,76164.36
2019-01-08T09:13:26.631Z,76164.36
2019-01-08T09:15:52.637Z,76158.35
2019-01-08T09:18:21.301Z,76154.34
2019-01-08T09:20:47.666Z,76157.35
2019-01-08T09:23:13.747Z,76146.34
2019-01-08T09:25:40.898Z,76150.34
2019-01-08T09:28:06.825Z,76154.34
2019-01-08T09:30:36.062Z,76148.34
2019-01-08T09:33:02.146Z,76137.34
2019-01-08T09:35:30.768Z,76140.34
2019-01-08T09:37:56.694Z,76124.33
2019-01-08T09:40:24.817Z,76117.33
2019-01-08T09:42:50.710Z,76112.32
2019-01-08T09:45:16.620Z,76108.32
2019-01-08T09:47:42.553Z,76101.31
2019-01-08T09:50:08.454Z,76091.31
2019-01-08T09:52:34.348Z,76090.31
2019-01-08T09:55:00.296Z,76081.30
2019-01-08T09:57:26.185Z,76081.30
2019-01-08T09:59:52.133Z,76081.30
2019-01-08T10:02:18.042Z,76077.30
2019-01-08T10:04:47.194Z,76069.30
2019-01-08T10:07:13.481Z,76061.30
2019-01-08T10:09:39.414Z,76048.28
2019-01-08T10:12:05.321Z,76051.29
2019-01-08T10:14:31.262Z,76047.28
2019-01-08T10:16:57.625Z,76042.28
2019-01-08T10:19:23.520Z,76047.28
2019-01-08T10:21:55.089Z,76056.29
2019-01-08T10:24:20.984Z,76042.28
2019-01-08T10:26:46.899Z,76038.28
2019-01-08T10:29:12.844Z,76034.28
2019-01-08T10:31:38.744Z,76022.27
2019-01-08T10:34:07.555Z,76023.27
2019-01-08T10:36:33.446Z,76015.27
2019-01-08T10:38:59.351Z,76011.27
2019-01-08T10:41:25.249Z,76006.27
2019-01-08T10:43:52.510Z,76006.27
2019-01-08T10:46:18.410Z,76001.26
2019-01-08T10:48:45.297Z,76001.26
2019-01-08T10:51:11.183Z,75990.25
2019-01-08T10:53:37.124Z,75994.25
2019-01-08T10:56:03.383Z,75998.26
2019-01-08T10:58:32.063Z,75971.24
2019-01-08T11:00:58.057Z,75979.25
2019-01-08T11:03:26.897Z,75969.24
2019-01-08T11:05:53.288Z,75965.23
2019-01-08T11:08:22.745Z,75961.23
2019-01-08T11:10:51.436Z,75964.23
2019-01-08T11:13:17.765Z,75957.23
2019-01-08T11:15:46.693Z,75955.23
2019-01-08T11:18:16.157Z,75944.23
2019-01-08T11:20:43.186Z,75944.23
2019-01-08T11:23:12.076Z,75941.23
2019-01-08T11:25:41.636Z,75929.22
2019-01-08T11:28:10.568Z,75930.22
2019-01-08T11:30:39.708Z,75929.22
2019-01-08T11:33:05.983Z,75924.22
2019-01-08T11:35:31.925Z,75918.22
2019-01-08T11:37:57.822Z,75920.22
2019-01-08T11:40:24.255Z,75919.22
2019-01-08T11:42:50.165Z,75918.22
2019-01-08T11:45:21.872Z,75915.21
2019-01-08T11:47:47.808Z,75912.21
2019-01-08T11:50:16.945Z,75912.21
2019-01-08T11:52:42.847Z,75903.20
2019-01-08T11:55:11.932Z,75906.20
2019-01-08T11:57:40.955Z,75907.20
2019-01-08T12:00:10.884Z,75894.20
2019-01-08T12:02:47.619Z,75899.20
2019-01-08T12:05:08.039Z,75891.20
2019-01-08T12:07:36.777Z,75883.20
2019-01-08T12:10:05.895Z,75885.20
2019-01-08T12:12:34.858Z,75886.20
2019-01-08T12:15:04.886Z,75879.20
2019-01-08T12:17:34.223Z,75874.19
2019-01-08T12:20:04.842Z,75876.19
2019-01-08T12:22:30.739Z,75875.19
2019-01-08T12:24:56.713Z,75872.19
2019-01-08T12:27:25.619Z,75865.19
2019-01-08T12:29:54.568Z,75866.19
2019-01-08T12:32:23.474Z,75859.19
2019-01-08T12:34:49.818Z,75858.19
2019-01-08T12:37:18.525Z,75858.19
2019-01-08T12:39:47.879Z,75863.19
2019-01-08T12:42:13.812Z,75896.20
2019-01-08T12:44:39.859Z,75890.20
2019-01-08T12:47:08.923Z,75894.20
2019-01-08T12:49:34.860Z,75906.20
2019-01-08T12:52:00.876Z,75920.22
2019-01-08T12:54:26.824Z,75919.22
2019-01-08T12:56:58.143Z,75918.22
2019-01-08T12:59:27.037Z,75882.20
2019-01-08T13:01:52.929Z,75884.20
2019-01-08T13:04:20.167Z,75907.20
2019-01-08T13:06:46.176Z,75896.20
2019-01-08T13:09:12.083Z,75899.20
2019-01-08T13:11:38.439Z,75889.20
2019-01-08T13:14:05.490Z,75903.20
2019-01-08T13:16:31.789Z,75915.21
2019-01-08T13:18:57.803Z,75902.20
2019-01-08T13:21:23.749Z,75921.22
2019-01-08T13:23:53.041Z,75915.21
2019-01-08T13:26:22.093Z,75912.21
2019-01-08T13:28:47.946Z,75897.20
2019-01-08T13:31:16.704Z,75898.20
2019-01-08T13:33:42.614Z,75890.20
2019-01-08T13:36:08.516Z,75903.20
2019-01-08T13:38:34.418Z,75894.20
2019-01-08T13:41:00.323Z,75884.20
2019-01-08T13:43:26.255Z,75876.19
2019-01-08T13:45:52.159Z,75867.19
2019-01-08T13:48:18.424Z,75851.18
2019-01-08T13:50:44.317Z,75857.19
2019-01-08T13:53:10.262Z,75888.20
2019-01-08T13:55:36.159Z,75905.20
2019-01-08T13:58:02.067Z,75913.21
2019-01-08T14:00:27.969Z,75908.20
2019-01-08T14:02:53.904Z,75914.21
2019-01-08T14:05:21.762Z,75913.21
2019-01-08T14:07:50.583Z,75913.21
2019-01-08T14:10:22.362Z,75906.20
2019-01-08T14:12:48.260Z,75930.22
2019-01-08T14:15:17.366Z,75920.22
2019-01-08T14:17:46.386Z,75934.22
2019-01-08T14:20:12.326Z,75935.22
2019-01-08T14:22:38.283Z,75918.22
2019-01-08T14:25:07.248Z,75918.22
2019-01-08T14:27:33.157Z,75908.20
2019-01-08T14:30:02.875Z,75906.20
2019-01-08T14:32:40.357Z,75900.20
2019-01-08T14:34:59.724Z,75893.20
2019-01-08T14:37:25.612Z,75886.20
2019-01-08T14:39:51.530Z,75877.19
2019-01-08T14:42:20.226Z,75869.19
2019-01-08T14:44:46.148Z,75870.19
2019-01-08T14:47:14.886Z,75863.19
2019-01-08T14:49:44.136Z,75846.17
2019-01-08T14:52:12.880Z,75845.17
2019-01-08T14:54:38.850Z,75841.17
2019-01-08T14:57:04.754Z,75846.17
2019-01-08T14:59:33.814Z,75848.18
2019-01-08T15:02:02.733Z,75847.18
2019-01-08T15:04:28.786Z,75846.17
2019-01-08T15:06:57.715Z,75844.17
2019-01-08T15:09:23.572Z,75844.17
2019-01-08T15:11:52.582Z,75836.17
2019-01-08T15:14:18.491Z,75876.19
2019-01-08T15:16:47.605Z,75886.20
2019-01-08T15:19:13.520Z,75887.20
2019-01-08T15:21:39.721Z,75895.20
2019-01-08T15:24:05.614Z,75894.20
2019-01-08T15:26:31.528Z,75899.20
2019-01-08T15:28:57.433Z,75897.20
2019-01-08T15:31:23.340Z,75909.20
2019-01-08T15:33:50.910Z,75904.20
2019-01-08T15:36:16.812Z,75906.20
2019-01-08T15:38:45.472Z,75898.20
2019-01-08T15:41:14.562Z,75903.20
2019-01-08T15:43:40.458Z,75896.20
2019-01-08T15:46:06.349Z,75872.19
2019-01-08T15:48:32.261Z,75890.20
2019-01-08T15:50:58.157Z,75897.20
2019-01-08T15:53:28.959Z,75899.20
2019-01-08T15:55:58.058Z,75902.20
2019-01-08T15:58:27.069Z,75903.20
2019-01-08T16:00:55.730Z,75889.20
2019-01-08T16:03:24.776Z,75904.20
2019-01-08T16:05:50.753Z,75898.20
2019-01-08T16:08:16.698Z,75904.20
2019-01-08T16:10:45.628Z,75905.20
2019-01-08T16:13:14.784Z,75908.20
2019-01-08T16:15:43.695Z,75902.20
2019-01-08T16:18:09.655Z,75907.20
2019-01-08T16:20:36.311Z,75898.20
2019-01-08T16:23:02.241Z,75899.20
2019-01-08T16:25:28.151Z,75898.20
2019-01-08T16:27:56.806Z,75902.20
2019-01-08T16:30:22.756Z,75913.21
2019-01-08T16:32:51.695Z,75909.20
2019-01-08T16:35:20.608Z,75910.21
2019-01-08T16:37:52.292Z,75908.20
2019-01-08T16:40:21.497Z,75904.20
2019-01-08T16:42:50.166Z,75907.20
2019-01-08T16:45:21.340Z,75911.21
2019-01-08T16:47:50.285Z,75904.20
2019-01-08T16:50:16.292Z,75902.20
2019-01-08T16:52:42.179Z,75897.20
2019-01-08T16:55:11.294Z,75906.20
2019-01-08T16:57:40.262Z,75889.20
2019-01-08T17:00:18.666Z,75885.20
2019-01-08T17:02:44.667Z,75899.20
2019-01-08T17:08:07.793Z,75910.21
2019-01-08T17:10:33.728Z,75908.20
2019-01-08T17:12:59.637Z,75904.20
2019-01-08T17:15:28.791Z,75919.22
2019-01-08T17:17:57.738Z,75935.22
2019-01-08T17:20:26.838Z,75946.23
2019-01-08T17:22:59.115Z,75959.23
2019-01-08T17:25:28.027Z,75955.23
2019-01-08T17:27:57.329Z,75964.23
2019-01-08T17:30:23.787Z,75964.23
2019-01-08T17:32:51.591Z,75957.23
2019-01-08T17:35:17.856Z,75952.23
2019-01-08T17:37:43.796Z,75947.23
2019-01-08T17:40:12.775Z,75954.23
2019-01-08T17:42:38.715Z,75954.23
2019-01-08T17:45:08.574Z,75963.23
2019-01-08T17:47:37.360Z,75962.23
2019-01-08T17:50:04.078Z,75967.24
2019-01-08T17:52:29.987Z,75961.23
2019-01-08T17:54:55.913Z,75966.24
2019-01-08T17:57:21.813Z,75967.24
2019-01-08T17:59:47.738Z,75967.24
2019-01-08T18:02:14.222Z,75958.23
2019-01-08T18:04:40.123Z,75959.23
2019-01-08T18:07:06.023Z,75952.23
2019-01-08T18:09:31.918Z,75958.23
2019-01-08T18:12:01.066Z,75960.23
2019-01-08T18:14:30.157Z,75965.23
2019-01-08T18:16:59.288Z,75969.24
2019-01-08T18:19:25.205Z,75980.25
2019-01-08T18:21:54.398Z,75968.24
2019-01-08T18:24:20.296Z,75973.24
2019-01-08T18:26:46.192Z,75985.25
2019-01-08T18:29:12.106Z,75979.25
2019-01-08T18:31:38.015Z,75987.25
2019-01-08T18:34:03.933Z,75983.25
2019-01-08T18:36:29.836Z,75988.25
2019-01-08T18:38:55.738Z,75992.25
2019-01-08T18:41:21.635Z,75989.25
2019-01-08T18:43:47.557Z,75997.26
2019-01-08T18:46:13.494Z,75992.25
2019-01-08T18:48:42.877Z,75993.25
2019-01-08T18:51:08.776Z,75993.25
2019-01-08T18:53:37.499Z,75999.26
2019-01-08T18:56:03.529Z,76008.27
2019-01-08T18:58:30.958Z,76009.27
2019-01-08T19:00:57.978Z,76006.27
2019-01-08T19:03:24.653Z,76008.27
2019-01-08T19:05:51.425Z,76006.27
2019-01-08T19:08:18.185Z,76004.27
2019-01-08T19:10:48.027Z,76010.27
2019-01-08T19:13:14.785Z,76019.27
2019-01-08T19:15:41.798Z,76007.27
2019-01-08T19:18:11.598Z,76014.27
2019-01-08T19:20:38.418Z,76001.26
2019-01-08T19:23:05.003Z,76006.27
2019-01-08T19:25:32.103Z,76005.27
2019-01-08T19:28:02.538Z,76004.27
2019-01-08T19:30:29.198Z,76012.27
2019-01-08T19:32:56.457Z,76009.27
2019-01-08T19:35:31.550Z,76022.27
2019-01-08T19:37:57.044Z,76019.27
2019-01-08T19:40:23.013Z,76024.27
2019-01-08T19:42:52.024Z,76027.27
2019-01-08T19:45:18.085Z,76021.27
2019-01-08T19:47:44.042Z,76024.27
2019-01-08T19:50:13.016Z,76028.28
2019-01-08T19:52:38.963Z,76022.27
2019-01-08T19:55:07.958Z,76027.27
2019-01-08T19:57:36.847Z,76033.28
2019-01-08T20:00:03.146Z,76023.27
2019-01-08T20:02:29.374Z,76015.27
2019-01-08T20:04:55.326Z,76023.27
2019-01-08T20:07:21.272Z,76021.27
2019-01-08T20:09:52.989Z,76024.27
2019-01-08T20:12:21.943Z,76023.27
2019-01-08T20:14:47.860Z,76015.27
2019-01-08T20:17:13.759Z,76021.27
2019-01-08T20:19:39.659Z,76029.28
2019-01-08T20:22:06.027Z,76027.27
2019-01-08T20:24:32.831Z,76018.27
2019-01-08T20:27:01.617Z,76008.27
2019-01-08T20:29:30.898Z,76012.27
2019-01-08T20:32:00.263Z,76016.27
2019-01-08T20:34:32.155Z,76012.27
2019-01-08T20:37:02.240Z,76017.27
2019-01-08T20:39:34.203Z,76021.27
2019-01-08T20:42:01.163Z,76018.27
2019-01-08T20:44:27.766Z,76010.27
2019-01-08T20:46:54.618Z,76014.27
2019-01-08T20:49:21.808Z,76014.27
2019-01-08T20:51:51.510Z,76018.27
2019-01-08T20:54:21.811Z,76023.27
2019-01-08T20:56:52.993Z,76006.27
2019-01-08T20:59:20.267Z,76016.27
2019-01-08T21:01:53.567Z,76006.27
2019-01-08T21:04:23.755Z,76017.27
2019-01-08T21:06:51.179Z,76016.27
2019-01-08T21:09:21.126Z,76014.27
2019-01-08T21:11:52.932Z,76019.27
2019-01-08T21:14:18.824Z,76020.27
2019-01-08T21:17:07.322Z,76018.27
2019-01-08T21:22:48.455Z,76022.27
2019-01-08T21:25:36.583Z,76020.27
2019-01-08T21:28:00.875Z,76017.27
2019-01-08T21:30:27.299Z,76027.27
2019-01-08T21:32:53.223Z,76025.27
2019-01-08T21:35:29.190Z,76020.27
2019-01-08T21:38:11.357Z,76021.27
2019-01-08T21:40:37.707Z,76026.27
2019-01-08T21:43:13.483Z,76030.28
2019-01-08T21:46:03.994Z,76035.28
2019-01-08T21:51:59.411Z,76039.28
2019-01-08T21:54:24.503Z,76032.28
2019-01-08T21:56:51.203Z,76032.28
2019-01-08T21:59:30.852Z,76037.28
2019-01-08T22:02:25.174Z,76036.28
2019-01-08T22:04:53.236Z,76032.28
2019-01-08T22:07:22.048Z,76033.28
2019-01-08T22:10:07.824Z,76030.28
2019-01-08T22:19:05.367Z,76029.28
2019-01-08T22:24:29.083Z,76023.27
2019-01-08T22:26:57.203Z,76036.28
2019-01-08T22:32:30.107Z,76035.28
2019-01-08T22:35:02.112Z,76040.28
2019-01-08T22:37:26.534Z,76034.28
2019-01-08T22:39:55.328Z,76032.28
2019-01-08T22:42:21.293Z,76043.28
2019-01-08T22:44:47.238Z,76033.28
2019-01-08T22:47:13.368Z,76033.28
2019-01-08T22:49:39.314Z,76027.27
2019-01-08T22:52:30.935Z,76030.28
2019-01-08T22:57:50.755Z,76040.28
2019-01-08T23:00:35.391Z,76043.28
2019-01-08T23:03:01.343Z,76037.28
2019-01-08T23:05:27.232Z,76047.28
2019-01-08T23:07:54.209Z,76033.28
2019-01-08T23:10:20.459Z,76027.27
2019-01-08T23:12:49.193Z,76027.27
2019-01-08T23:15:15.081Z,76028.28
2019-01-08T23:17:44.256Z,76030.28
2019-01-08T23:20:10.161Z,76035.28
2019-01-08T23:22:36.063Z,76034.28
2019-01-08T23:25:01.980Z,76034.28
2019-01-08T23:27:28.290Z,76027.27
2019-01-08T23:29:57.156Z,76033.28
2019-01-08T23:32:23.075Z,76023.27
2019-01-08T23:34:51.779Z,76027.27
2019-01-08T23:37:17.685Z,76033.28
2019-01-08T23:39:44.006Z,76034.28
2019-01-08T23:42:09.897Z,76039.28
2019-01-08T23:44:38.571Z,76026.27
2019-01-08T23:47:07.528Z,76032.28
2019-01-08T23:49:36.553Z,76030.28
2019-01-08T23:52:02.450Z,76032.28
2019-01-08T23:54:31.543Z,76036.28
2019-01-08T23:56:58.161Z,76036.28
2019-01-08T23:59:27.133Z,76034.28
